sensor_id;sensor_type;location;lat;lon;timestamp;pressure;altitude;pressure_sealevel;temperature;humidity
7297;BME280;40758;54.038;11.684;2023-02-03T00:02:11;101433.44;;;2.02;100.00
7297;BME280;40758;54.038;11.684;2023-02-03T00:04:39;101435.97;;;2.06;100.00
7297;BME280;40758;54.038;11.684;2023-02-03T00:07:12;101439.19;;;1.90;100.00
7297;BME280;40758;54.038;11.684;2023-02-03T00:09:41;101438.47;;;1.85;100.00
7297;BME280;40758;54.038;11.684;2023-02-03T00:12:09;101430.63;;;1.82;100.00
7297;BME280;40758;54.038;11.684;2023-02-03T00:14:38;101417.22;;;1.87;100.00
7297;BME280;40758;54.038;11.684;2023-02-03T00:17:06;101414.06;;;1.77;100.00
7297;BME280;40758;54.038;11.684;2023-02-03T00:19:34;101402.75;;;1.72;100.00
7297;BME280;40758;54.038;11.684;2023-02-03T00:22:03;101397.56;;;1.69;100.00
7297;BME280;40758;54.038;11.684;2023-02-03T00:24:33;101386.97;;;1.69;100.00
7297;BME280;40758;54.038;11.684;2023-02-03T00:27:01;101377.41;;;1.65;100.00
7297;BME280;40758;54.038;11.684;2023-02-03T00:29:29;101364.16;;;1.65;100.00
7297;BME280;40758;54.038;11.684;2023-02-03T00:31:58;101353.66;;;1.62;100.00
7297;BME280;40758;54.038;11.684;2023-02-03T00:34:27;101348.38;;;1.62;100.00
7297;BME280;40758;54.038;11.684;2023-02-03T00:36:56;101350.22;;;1.60;100.00
7297;BME280;40758;54.038;11.684;2023-02-03T00:39:25;101338.13;;;1.53;100.00
7297;BME280;40758;54.038;11.684;2023-02-03T00:41:55;101323.84;;;1.57;100.00
7297;BME280;40758;54.038;11.684;2023-02-03T00:44:23;101315.81;;;1.60;100.00
7297;BME280;40758;54.038;11.684;2023-02-03T00:46:52;101291.38;;;1.52;100.00
7297;BME280;40758;54.038;11.684;2023-02-03T00:49:20;101289.69;;;1.49;100.00
7297;BME280;40758;54.038;11.684;2023-02-03T00:51:49;101270.25;;;1.50;100.00
7297;BME280;40758;54.038;11.684;2023-02-03T00:54:18;101262.34;;;1.49;100.00
7297;BME280;40758;54.038;11.684;2023-02-03T00:56:47;101265.06;;;1.47;100.00
7297;BME280;40758;54.038;11.684;2023-02-03T00:59:16;101254.41;;;1.49;100.00
7297;BME280;40758;54.038;11.684;2023-02-03T01:01:45;101251.66;;;1.52;100.00
7297;BME280;40758;54.038;11.684;2023-02-03T01:04:15;101251.66;;;1.52;100.00
7297;BME280;40758;54.038;11.684;2023-02-03T01:06:44;101244.53;;;1.54;100.00
7297;BME280;40758;54.038;11.684;2023-02-03T01:09:12;101234.66;;;1.57;100.00
7297;BME280;40758;54.038;11.684;2023-02-03T01:11:40;101226.66;;;1.59;100.00
7297;BME280;40758;54.038;11.684;2023-02-03T01:14:09;101219.50;;;1.61;100.00
7297;BME280;40758;54.038;11.684;2023-02-03T01:16:39;101206.25;;;1.61;100.00
7297;BME280;40758;54.038;11.684;2023-02-03T01:19:08;101207.09;;;1.63;100.00
7297;BME280;40758;54.038;11.684;2023-02-03T01:21:37;101204.38;;;1.65;100.00
7297;BME280;40758;54.038;11.684;2023-02-03T01:24:05;101210.97;;;1.76;100.00
7297;BME280;40758;54.038;11.684;2023-02-03T01:26:36;101200.25;;;1.79;100.00
7297;BME280;40758;54.038;11.684;2023-02-03T01:29:04;101197.50;;;1.82;100.00
7297;BME280;40758;54.038;11.684;2023-02-03T01:31:35;101190.34;;;1.84;100.00
7297;BME280;40758;54.038;11.684;2023-02-03T01:34:12;101191.22;;;1.85;100.00
7297;BME280;40758;54.038;11.684;2023-02-03T01:36:42;101179.50;;;1.90;100.00
7297;BME280;40758;54.038;11.684;2023-02-03T01:39:12;101170.41;;;1.97;100.00
7297;BME280;40758;54.038;11.684;2023-02-03T01:41:41;101157.00;;;2.00;100.00
7297;BME280;40758;54.038;11.684;2023-02-03T01:44:38;101154.81;;;2.10;100.00
7297;BME280;40758;54.038;11.684;2023-02-03T01:47:21;101152.25;;;2.09;100.00
7297;BME280;40758;54.038;11.684;2023-02-03T01:50:01;101132.69;;;2.11;100.00
7297;BME280;40758;54.038;11.684;2023-02-03T01:52:31;101130.53;;;2.21;100.00
7297;BME280;40758;54.038;11.684;2023-02-03T01:55:04;101144.31;;;2.29;100.00
7297;BME280;40758;54.038;11.684;2023-02-03T01:57:41;101138.75;;;2.35;100.00
7297;BME280;40758;54.038;11.684;2023-02-03T02:00:12;101125.91;;;2.26;100.00
7297;BME280;40758;54.038;11.684;2023-02-03T02:02:43;101117.94;;;2.26;100.00
7297;BME280;40758;54.038;11.684;2023-02-03T02:05:22;101103.88;;;2.24;100.00
7297;BME280;40758;54.038;11.684;2023-02-03T02:07:54;101098.63;;;2.22;100.00
7297;BME280;40758;54.038;11.684;2023-02-03T02:10:24;101082.56;;;2.27;100.00
7297;BME280;40758;54.038;11.684;2023-02-03T02:12:54;101074.28;;;2.34;100.00
7297;BME280;40758;54.038;11.684;2023-02-03T02:15:33;101062.81;;;2.34;100.00
7297;BME280;40758;54.038;11.684;2023-02-03T02:18:23;101059.78;;;2.41;100.00
7297;BME280;40758;54.038;11.684;2023-02-03T02:21:40;101063.13;;;2.47;100.00
7297;BME280;40758;54.038;11.684;2023-02-03T02:25:05;101042.47;;;2.53;100.00
7297;BME280;40758;54.038;11.684;2023-02-03T02:31:29;101032.91;;;2.69;100.00
7297;BME280;40758;54.038;11.684;2023-02-03T02:34:09;101027.16;;;2.78;100.00
7297;BME280;40758;54.038;11.684;2023-02-03T02:36:58;101011.81;;;2.85;100.00
7297;BME280;40758;54.038;11.684;2023-02-03T02:39:38;101010.06;;;3.03;100.00
7297;BME280;40758;54.038;11.684;2023-02-03T02:42:20;100996.03;;;3.01;100.00
7297;BME280;40758;54.038;11.684;2023-02-03T02:44:58;100983.72;;;3.17;100.00
7297;BME280;40758;54.038;11.684;2023-02-03T02:47:33;100974.03;;;3.16;100.00
7297;BME280;40758;54.038;11.684;2023-02-03T02:50:08;100975.34;;;3.26;100.00
7297;BME280;40758;54.038;11.684;2023-02-03T02:52:41;100971.03;;;3.23;100.00
7297;BME280;40758;54.038;11.684;2023-02-03T02:55:17;100974.56;;;3.41;100.00
7297;BME280;40758;54.038;11.684;2023-02-03T02:57:54;100958.00;;;3.53;100.00
7297;BME280;40758;54.038;11.684;2023-02-03T03:00:24;100956.84;;;3.59;100.00
7297;BME280;40758;54.038;11.684;2023-02-03T03:02:56;100963.56;;;3.66;100.00
7297;BME280;40758;54.038;11.684;2023-02-03T03:05:26;100958.34;;;3.82;100.00
7297;BME280;40758;54.038;11.684;2023-02-03T03:07:59;100946.59;;;3.86;100.00
7297;BME280;40758;54.038;11.684;2023-02-03T03:10:31;100932.06;;;3.93;100.00
7297;BME280;40758;54.038;11.684;2023-02-03T03:13:08;100928.91;;;4.02;100.00
7297;BME280;40758;54.038;11.684;2023-02-03T03:15:40;100918.72;;;4.10;100.00
7297;BME280;40758;54.038;11.684;2023-02-03T03:18:16;100916.66;;;4.15;100.00
7297;BME280;40758;54.038;11.684;2023-02-03T03:20:50;100907.50;;;4.21;100.00
7297;BME280;40758;54.038;11.684;2023-02-03T03:23:26;100898.97;;;4.31;100.00
7297;BME280;40758;54.038;11.684;2023-02-03T03:26:06;100903.94;;;4.37;100.00
7297;BME280;40758;54.038;11.684;2023-02-03T03:28:45;100893.56;;;4.48;100.00
7297;BME280;40758;54.038;11.684;2023-02-03T03:31:16;100887.03;;;4.54;100.00
7297;BME280;40758;54.038;11.684;2023-02-03T03:33:50;100879.56;;;4.61;100.00
7297;BME280;40758;54.038;11.684;2023-02-03T03:36:25;100877.25;;;4.70;100.00
7297;BME280;40758;54.038;11.684;2023-02-03T03:39:01;100878.25;;;4.83;100.00
7297;BME280;40758;54.038;11.684;2023-02-03T03:41:40;100863.94;;;4.86;100.00
7297;BME280;40758;54.038;11.684;2023-02-03T03:44:14;100870.63;;;4.93;100.00
7297;BME280;40758;54.038;11.684;2023-02-03T03:46:50;100862.09;;;5.02;100.00
7297;BME280;40758;54.038;11.684;2023-02-03T03:49:22;100856.31;;;5.10;100.00
7297;BME280;40758;54.038;11.684;2023-02-03T03:51:57;100836.47;;;5.15;100.00
7297;BME280;40758;54.038;11.684;2023-02-03T03:54:31;100831.56;;;5.23;100.00
7297;BME280;40758;54.038;11.684;2023-02-03T03:57:10;100832.91;;;5.31;100.00
7297;BME280;40758;54.038;11.684;2023-02-03T03:59:47;100840.69;;;5.34;100.00
7297;BME280;40758;54.038;11.684;2023-02-03T04:02:18;100832.16;;;5.43;100.00
7297;BME280;40758;54.038;11.684;2023-02-03T04:04:50;100831.78;;;5.49;100.00
7297;BME280;40758;54.038;11.684;2023-02-03T04:07:19;100819.91;;;5.54;100.00
7297;BME280;40758;54.038;11.684;2023-02-03T04:09:48;100820.28;;;5.62;100.00
7297;BME280;40758;54.038;11.684;2023-02-03T04:12:22;100834.09;;;5.69;100.00
7297;BME280;40758;54.038;11.684;2023-02-03T04:14:51;100820.56;;;5.72;100.00
7297;BME280;40758;54.038;11.684;2023-02-03T04:17:19;100818.97;;;5.84;100.00
7297;BME280;40758;54.038;11.684;2023-02-03T04:19:51;100818.00;;;5.85;100.00
7297;BME280;40758;54.038;11.684;2023-02-03T04:22:22;100812.59;;;5.86;100.00
7297;BME280;40758;54.038;11.684;2023-02-03T04:24:50;100807.00;;;5.91;100.00
7297;BME280;40758;54.038;11.684;2023-02-03T04:27:19;100805.06;;;5.93;100.00
7297;BME280;40758;54.038;11.684;2023-02-03T04:29:48;100796.97;;;5.94;100.00
7297;BME280;40758;54.038;11.684;2023-02-03T04:32:17;100795.47;;;5.90;100.00
7297;BME280;40758;54.038;11.684;2023-02-03T04:34:46;100780.81;;;5.97;100.00
7297;BME280;40758;54.038;11.684;2023-02-03T04:37:17;100775.25;;;6.00;100.00
7297;BME280;40758;54.038;11.684;2023-02-03T04:39:47;100758.41;;;6.00;100.00
7297;BME280;40758;54.038;11.684;2023-02-03T04:42:15;100774.97;;;6.05;100.00
7297;BME280;40758;54.038;11.684;2023-02-03T04:44:46;100748.41;;;6.03;100.00
7297;BME280;40758;54.038;11.684;2023-02-03T04:47:16;100756.28;;;6.05;100.00
7297;BME280;40758;54.038;11.684;2023-02-03T04:49:45;100744.50;;;6.09;100.00
7297;BME280;40758;54.038;11.684;2023-02-03T04:52:15;100746.47;;;6.05;100.00
7297;BME280;40758;54.038;11.684;2023-02-03T04:54:44;100736.78;;;6.04;100.00
7297;BME280;40758;54.038;11.684;2023-02-03T04:57:12;100723.25;;;6.07;100.00
7297;BME280;40758;54.038;11.684;2023-02-03T04:59:41;100733.16;;;6.05;100.00
7297;BME280;40758;54.038;11.684;2023-02-03T05:02:09;100719.94;;;6.04;100.00
7297;BME280;40758;54.038;11.684;2023-02-03T05:04:38;100712.78;;;6.04;100.00
7297;BME280;40758;54.038;11.684;2023-02-03T05:07:06;100717.13;;;6.05;100.00
7297;BME280;40758;54.038;11.684;2023-02-03T05:09:36;100705.53;;;6.06;100.00
7297;BME280;40758;54.038;11.684;2023-02-03T05:12:05;100706.38;;;6.07;100.00
7297;BME280;40758;54.038;11.684;2023-02-03T05:14:33;100697.44;;;6.08;100.00
7297;BME280;40758;54.038;11.684;2023-02-03T05:17:02;100703.53;;;6.10;100.00
7297;BME280;40758;54.038;11.684;2023-02-03T05:19:30;100701.50;;;6.14;100.00
7297;BME280;40758;54.038;11.684;2023-02-03T05:21:59;100692.84;;;6.10;100.00
7297;BME280;40758;54.038;11.684;2023-02-03T05:24:31;100687.31;;;6.13;100.00
7297;BME280;40758;54.038;11.684;2023-02-03T05:27:01;100675.78;;;6.13;100.00
7297;BME280;40758;54.038;11.684;2023-02-03T05:29:29;100683.78;;;6.13;100.00
7297;BME280;40758;54.038;11.684;2023-02-03T05:31:58;100668.53;;;6.15;100.00
7297;BME280;40758;54.038;11.684;2023-02-03T05:34:26;100674.94;;;6.12;100.00
7297;BME280;40758;54.038;11.684;2023-02-03T05:36:55;100655.22;;;6.15;100.00
7297;BME280;40758;54.038;11.684;2023-02-03T05:39:23;100664.06;;;6.15;100.00
7297;BME280;40758;54.038;11.684;2023-02-03T05:41:52;100661.41;;;6.15;100.00
7297;BME280;40758;54.038;11.684;2023-02-03T05:44:26;100644.53;;;6.15;100.00
7297;BME280;40758;54.038;11.684;2023-02-03T05:46:57;100642.72;;;6.15;100.00
7297;BME280;40758;54.038;11.684;2023-02-03T05:49:26;100627.50;;;6.17;100.00
7297;BME280;40758;54.038;11.684;2023-02-03T05:51:54;100623.19;;;6.15;100.00
7297;BME280;40758;54.038;11.684;2023-02-03T05:54:23;100621.28;;;6.17;100.00
7297;BME280;40758;54.038;11.684;2023-02-03T05:56:52;100615.84;;;6.18;100.00
7297;BME280;40758;54.038;11.684;2023-02-03T05:59:21;100610.41;;;6.20;100.00
7297;BME280;40758;54.038;11.684;2023-02-03T06:01:53;100591.63;;;6.21;100.00
7297;BME280;40758;54.038;11.684;2023-02-03T06:04:21;100608.50;;;6.22;100.00
7297;BME280;40758;54.038;11.684;2023-02-03T06:06:49;100595.16;;;6.22;100.00
7297;BME280;40758;54.038;11.684;2023-02-03T06:09:20;100579.78;;;6.25;100.00
7297;BME280;40758;54.038;11.684;2023-02-03T06:11:48;100579.47;;;6.30;100.00
7297;BME280;40758;54.038;11.684;2023-02-03T06:14:17;100574.34;;;6.27;100.00
7297;BME280;40758;54.038;11.684;2023-02-03T06:16:46;100572.63;;;6.26;100.00
7297;BME280;40758;54.038;11.684;2023-02-03T06:19:20;100565.41;;;6.28;100.00
7297;BME280;40758;54.038;11.684;2023-02-03T06:21:48;100549.38;;;6.28;100.00
7297;BME280;40758;54.038;11.684;2023-02-03T06:24:18;100565.16;;;6.31;100.00
7297;BME280;40758;54.038;11.684;2023-02-03T06:26:46;100569.47;;;6.33;100.00
7297;BME280;40758;54.038;11.684;2023-02-03T06:29:15;100563.47;;;6.30;100.00
7297;BME280;40758;54.038;11.684;2023-02-03T06:31:44;100563.25;;;6.33;100.00
7297;BME280;40758;54.038;11.684;2023-02-03T06:34:12;100546.41;;;6.32;100.00
7297;BME280;40758;54.038;11.684;2023-02-03T06:36:42;100540.22;;;6.32;100.00
7297;BME280;40758;54.038;11.684;2023-02-03T06:39:11;100537.44;;;6.33;100.00
7297;BME280;40758;54.038;11.684;2023-02-03T06:41:39;100527.81;;;6.31;100.00
7297;BME280;40758;54.038;11.684;2023-02-03T06:44:07;100517.16;;;6.31;100.00
7297;BME280;40758;54.038;11.684;2023-02-03T06:46:36;100509.91;;;6.33;100.00
7297;BME280;40758;54.038;11.684;2023-02-03T06:49:05;100516.94;;;6.34;100.00
7297;BME280;40758;54.038;11.684;2023-02-03T06:51:33;100521.44;;;6.33;100.00
7297;BME280;40758;54.038;11.684;2023-02-03T06:54:04;100507.25;;;6.33;100.00
7297;BME280;40758;54.038;11.684;2023-02-03T06:56:33;100503.63;;;6.34;100.00
7297;BME280;40758;54.038;11.684;2023-02-03T06:59:02;100517.81;;;6.34;100.00
7297;BME280;40758;54.038;11.684;2023-02-03T07:01:31;100523.16;;;6.34;100.00
7297;BME280;40758;54.038;11.684;2023-02-03T07:04:00;100503.50;;;6.35;100.00
7297;BME280;40758;54.038;11.684;2023-02-03T07:06:29;100476.06;;;6.33;100.00
7297;BME280;40758;54.038;11.684;2023-02-03T07:09:03;100491.13;;;6.34;100.00
7297;BME280;40758;54.038;11.684;2023-02-03T07:11:35;100489.41;;;6.33;100.00
7297;BME280;40758;54.038;11.684;2023-02-03T07:14:04;100483.00;;;6.36;100.00
7297;BME280;40758;54.038;11.684;2023-02-03T08:07:41;100483.97;;;6.09;100.00
7297;BME280;40758;54.038;11.684;2023-02-03T08:10:14;100459.44;;;6.04;100.00
7297;BME280;40758;54.038;11.684;2023-02-03T08:12:44;100474.22;;;5.96;100.00
7297;BME280;40758;54.038;11.684;2023-02-03T08:15:15;100468.47;;;5.89;100.00
7297;BME280;40758;54.038;11.684;2023-02-03T08:17:45;100463.13;;;5.89;100.00
7297;BME280;40758;54.038;11.684;2023-02-03T08:20:18;100468.47;;;5.89;100.00
7297;BME280;40758;54.038;11.684;2023-02-03T08:22:49;100469.31;;;5.90;100.00
7297;BME280;40758;54.038;11.684;2023-02-03T08:25:21;100468.25;;;5.92;100.00
7297;BME280;40758;54.038;11.684;2023-02-03T08:27:52;100464.84;;;5.90;100.00
7297;BME280;40758;54.038;11.684;2023-02-03T08:30:23;100459.50;;;5.90;100.00
7297;BME280;40758;54.038;11.684;2023-02-03T08:32:54;100473.78;;;5.89;100.00
7297;BME280;40758;54.038;11.684;2023-02-03T08:35:24;100487.31;;;5.86;100.00
7297;BME280;40758;54.038;11.684;2023-02-03T08:37:56;100488.34;;;5.84;100.00
7297;BME280;40758;54.038;11.684;2023-02-03T08:40:25;100492.19;;;5.80;100.00
7297;BME280;40758;54.038;11.684;2023-02-03T08:42:55;100497.81;;;5.75;100.00
7297;BME280;40758;54.038;11.684;2023-02-03T08:45:25;100505.41;;;5.81;100.00
7297;BME280;40758;54.038;11.684;2023-02-03T08:47:54;100514.16;;;5.83;100.00
7297;BME280;40758;54.038;11.684;2023-02-03T08:50:22;100507.09;;;5.96;100.00
7297;BME280;40758;54.038;11.684;2023-02-03T08:52:51;100510.50;;;5.98;100.00
7297;BME280;40758;54.038;11.684;2023-02-03T08:55:22;100530.56;;;6.04;100.00
7297;BME280;40758;54.038;11.684;2023-02-03T08:57:51;100531.22;;;6.07;100.00
7297;BME280;40758;54.038;11.684;2023-02-03T09:00:20;100515.00;;;6.11;100.00
7297;BME280;40758;54.038;11.684;2023-02-03T09:02:49;100543.72;;;6.20;100.00
7297;BME280;40758;54.038;11.684;2023-02-03T09:05:18;100556.19;;;6.19;100.00
7297;BME280;40758;54.038;11.684;2023-02-03T09:07:49;100559.41;;;6.24;100.00
7297;BME280;40758;54.038;11.684;2023-02-03T09:10:22;100560.78;;;6.30;100.00
7297;BME280;40758;54.038;11.684;2023-02-03T09:12:51;100563.91;;;6.36;100.00
7297;BME280;40758;54.038;11.684;2023-02-03T09:15:20;100567.97;;;6.42;100.00
7297;BME280;40758;54.038;11.684;2023-02-03T09:17:48;100576.38;;;6.36;100.00
7297;BME280;40758;54.038;11.684;2023-02-03T09:20:17;100586.06;;;6.24;100.00
7297;BME280;40758;54.038;11.684;2023-02-03T09:22:46;100572.53;;;6.27;100.00
7297;BME280;40758;54.038;11.684;2023-02-03T09:25:14;100584.75;;;6.57;100.00
7297;BME280;40758;54.038;11.684;2023-02-03T09:27:45;100564.16;;;6.71;100.00
7297;BME280;40758;54.038;11.684;2023-02-03T09:30:17;100577.38;;;6.85;100.00
7297;BME280;40758;54.038;11.684;2023-02-03T09:32:45;100579.84;;;6.88;100.00
7297;BME280;40758;54.038;11.684;2023-02-03T09:35:20;100578.44;;;6.96;100.00
7297;BME280;40758;54.038;11.684;2023-02-03T09:37:49;100597.84;;;7.23;100.00
7297;BME280;40758;54.038;11.684;2023-02-03T09:40:23;100595.81;;;7.39;100.00
7297;BME280;40758;54.038;11.684;2023-02-03T09:43:12;100602.25;;;7.11;100.00
7297;BME280;40758;54.038;11.684;2023-02-03T09:45:42;100588.28;;;6.95;100.00
7297;BME280;40758;54.038;11.684;2023-02-03T09:48:16;100590.94;;;7.08;100.00
7297;BME280;40758;54.038;11.684;2023-02-03T09:50:49;100585.94;;;7.03;100.00
7297;BME280;40758;54.038;11.684;2023-02-03T09:53:30;100575.00;;;7.06;100.00
7297;BME280;40758;54.038;11.684;2023-02-03T09:56:02;100569.75;;;7.17;100.00
7297;BME280;40758;54.038;11.684;2023-02-03T09:58:33;100577.97;;;7.27;100.00
7297;BME280;40758;54.038;11.684;2023-02-03T10:01:07;100529.91;;;7.14;100.00
7297;BME280;40758;54.038;11.684;2023-02-03T10:03:45;100590.16;;;7.31;100.00
7297;BME280;40758;54.038;11.684;2023-02-03T10:06:25;100556.78;;;7.37;100.00
7297;BME280;40758;54.038;11.684;2023-02-03T10:09:22;100571.03;;;7.61;100.00
7297;BME280;40758;54.038;11.684;2023-02-03T10:12:19;100561.50;;;8.04;100.00
7297;BME280;40758;54.038;11.684;2023-02-03T10:15:15;100571.53;;;7.66;100.00
7297;BME280;40758;54.038;11.684;2023-02-03T10:17:53;100586.81;;;7.40;100.00
7297;BME280;40758;54.038;11.684;2023-02-03T10:20:38;100570.16;;;7.24;100.00
7297;BME280;40758;54.038;11.684;2023-02-03T10:23:11;100571.25;;;7.21;100.00
7297;BME280;40758;54.038;11.684;2023-02-03T10:25:50;100582.25;;;7.17;100.00
7297;BME280;40758;54.038;11.684;2023-02-03T10:28:27;100555.56;;;7.04;100.00
7297;BME280;40758;54.038;11.684;2023-02-03T10:31:00;100584.66;;;6.96;100.00
7297;BME280;40758;54.038;11.684;2023-02-03T10:33:32;100567.53;;;6.99;100.00
7297;BME280;40758;54.038;11.684;2023-02-03T10:36:13;100577.78;;;7.05;100.00
7297;BME280;40758;54.038;11.684;2023-02-03T10:38:54;100577.25;;;7.00;100.00
7297;BME280;40758;54.038;11.684;2023-02-03T10:41:29;100596.91;;;6.99;100.00
7297;BME280;40758;54.038;11.684;2023-02-03T10:44:04;100596.19;;;6.97;100.00
7297;BME280;40758;54.038;11.684;2023-02-03T10:46:38;100595.00;;;6.88;100.00
7297;BME280;40758;54.038;11.684;2023-02-03T10:49:09;100583.56;;;6.73;100.00
7297;BME280;40758;54.038;11.684;2023-02-03T10:51:44;100592.13;;;6.53;100.00
7297;BME280;40758;54.038;11.684;2023-02-03T10:54:30;100598.41;;;6.39;100.00
7297;BME280;40758;54.038;11.684;2023-02-03T10:57:09;100605.41;;;6.28;100.00
7297;BME280;40758;54.038;11.684;2023-02-03T10:59:42;100595.88;;;6.24;100.00
7297;BME280;40758;54.038;11.684;2023-02-03T11:02:24;100616.28;;;6.25;100.00
7297;BME280;40758;54.038;11.684;2023-02-03T11:05:10;100602.25;;;6.35;100.00
7297;BME280;40758;54.038;11.684;2023-02-03T11:07:45;100605.13;;;6.45;100.00
7297;BME280;40758;54.038;11.684;2023-02-03T11:10:32;100593.41;;;6.47;100.00
7297;BME280;40758;54.038;11.684;2023-02-03T11:13:19;100609.84;;;6.54;100.00
7297;BME280;40758;54.038;11.684;2023-02-03T11:15:55;100612.28;;;6.57;100.00
7297;BME280;40758;54.038;11.684;2023-02-03T11:18:49;100607.28;;;6.65;100.00
7297;BME280;40758;54.038;11.684;2023-02-03T11:21:22;100620.31;;;6.70;100.00
7297;BME280;40758;54.038;11.684;2023-02-03T11:24:00;100617.22;;;6.76;100.00
7297;BME280;40758;54.038;11.684;2023-02-03T11:26:35;100602.16;;;6.75;100.00
7297;BME280;40758;54.038;11.684;2023-02-03T11:29:17;100617.97;;;6.78;100.00
7297;BME280;40758;54.038;11.684;2023-02-03T11:31:53;100623.09;;;6.81;100.00
7297;BME280;40758;54.038;11.684;2023-02-03T11:34:28;100616.69;;;6.83;100.00
7297;BME280;40758;54.038;11.684;2023-02-03T11:37:24;100621.81;;;6.86;100.00
7297;BME280;40758;54.038;11.684;2023-02-03T11:39:55;100615.75;;;6.97;100.00
7297;BME280;40758;54.038;11.684;2023-02-03T11:42:25;100618.41;;;6.97;100.00
7297;BME280;40758;54.038;11.684;2023-02-03T11:45:13;100605.69;;;7.01;100.00
7297;BME280;40758;54.038;11.684;2023-02-03T11:47:45;100612.31;;;7.08;100.00
7297;BME280;40758;54.038;11.684;2023-02-03T11:50:28;100631.63;;;7.11;100.00
7297;BME280;40758;54.038;11.684;2023-02-03T11:53:18;100619.91;;;7.14;100.00
7297;BME280;40758;54.038;11.684;2023-02-03T11:56:08;100616.88;;;7.18;100.00
7297;BME280;40758;54.038;11.684;2023-02-03T12:02:39;100617.31;;;7.25;100.00
7297;BME280;40758;54.038;11.684;2023-02-03T12:05:38;100631.44;;;7.27;100.00
7297;BME280;40758;54.038;11.684;2023-02-03T12:08:40;100632.03;;;7.30;100.00
7297;BME280;40758;54.038;11.684;2023-02-03T12:11:23;100628.31;;;7.33;100.00
7297;BME280;40758;54.038;11.684;2023-02-03T12:14:14;100622.22;;;7.31;100.00
7297;BME280;40758;54.038;11.684;2023-02-03T12:17:19;100628.50;;;7.30;100.00
7297;BME280;40758;54.038;11.684;2023-02-03T12:20:14;100626.81;;;7.29;100.00
7297;BME280;40758;54.038;11.684;2023-02-03T12:23:01;100623.09;;;7.19;100.00
7297;BME280;40758;54.038;11.684;2023-02-03T12:25:47;100613.28;;;7.07;100.00
7297;BME280;40758;54.038;11.684;2023-02-03T12:28:38;100632.94;;;6.93;100.00
7297;BME280;40758;54.038;11.684;2023-02-03T12:31:19;100634.44;;;6.97;100.00
7297;BME280;40758;54.038;11.684;2023-02-03T12:33:59;100620.75;;;7.02;100.00
7297;BME280;40758;54.038;11.684;2023-02-03T12:36:36;100645.00;;;6.99;100.00
7297;BME280;40758;54.038;11.684;2023-02-03T12:39:18;100657.28;;;6.88;100.00
7297;BME280;40758;54.038;11.684;2023-02-03T12:42:06;100641.03;;;6.66;100.00
7297;BME280;40758;54.038;11.684;2023-02-03T12:44:45;100643.81;;;6.65;100.00
7297;BME280;40758;54.038;11.684;2023-02-03T12:47:25;100645.09;;;6.59;100.00
7297;BME280;40758;54.038;11.684;2023-02-03T12:49:59;100654.59;;;6.63;100.00
7297;BME280;40758;54.038;11.684;2023-02-03T12:52:35;100668.59;;;6.79;100.00
7297;BME280;40758;54.038;11.684;2023-02-03T12:55:20;100667.09;;;6.75;100.00
7297;BME280;40758;54.038;11.684;2023-02-03T12:57:57;100664.53;;;6.74;100.00
7297;BME280;40758;54.038;11.684;2023-02-03T13:00:39;100677.88;;;6.74;100.00
7297;BME280;40758;54.038;11.684;2023-02-03T13:03:20;100678.28;;;6.68;100.00
7297;BME280;40758;54.038;11.684;2023-02-03T13:06:05;100666.03;;;6.65;100.00
7297;BME280;40758;54.038;11.684;2023-02-03T13:08:40;100675.69;;;6.41;100.00
7297;BME280;40758;54.038;11.684;2023-02-03T13:11:23;100678.00;;;6.33;100.00
7297;BME280;40758;54.038;11.684;2023-02-03T13:14:01;100684.09;;;6.35;100.00
7297;BME280;40758;54.038;11.684;2023-02-03T13:16:36;100694.88;;;6.33;100.00
7297;BME280;40758;54.038;11.684;2023-02-03T13:19:16;100715.13;;;6.36;100.00
7297;BME280;40758;54.038;11.684;2023-02-03T13:21:47;100698.41;;;6.34;100.00
7297;BME280;40758;54.038;11.684;2023-02-03T13:24:22;100698.41;;;6.34;100.00
7297;BME280;40758;54.038;11.684;2023-02-03T13:27:21;100709.72;;;6.37;100.00
7297;BME280;40758;54.038;11.684;2023-02-03T13:30:16;100703.31;;;6.40;100.00
7297;BME280;40758;54.038;11.684;2023-02-03T13:33:20;100697.22;;;6.38;100.00
7297;BME280;40758;54.038;11.684;2023-02-03T13:36:08;100713.72;;;6.30;100.00
7297;BME280;40758;54.038;11.684;2023-02-03T13:39:11;100713.53;;;6.33;100.00
7297;BME280;40758;54.038;11.684;2023-02-03T13:41:47;100706.72;;;6.29;100.00
7297;BME280;40758;54.038;11.684;2023-02-03T13:44:24;100689.66;;;6.18;100.00
7297;BME280;40758;54.038;11.684;2023-02-03T13:46:56;100724.97;;;6.08;100.00
7297;BME280;40758;54.038;11.684;2023-02-03T13:49:32;100735.25;;;6.00;100.00
7297;BME280;40758;54.038;11.684;2023-02-03T13:52:02;100710.53;;;5.98;100.00
7297;BME280;40758;54.038;11.684;2023-02-03T13:54:37;100740.88;;;5.96;100.00
7297;BME280;40758;54.038;11.684;2023-02-03T13:57:21;100745.56;;;5.92;100.00
7297;BME280;40758;54.038;11.684;2023-02-03T13:59:52;100752.41;;;5.82;100.00
7297;BME280;40758;54.038;11.684;2023-02-03T14:02:52;100734.13;;;5.76;100.00
7297;BME280;40758;54.038;11.684;2023-02-03T14:05:44;100767.06;;;5.75;100.00
7297;BME280;40758;54.038;11.684;2023-02-03T14:08:50;100765.34;;;5.74;100.00
7297;BME280;40758;54.038;11.684;2023-02-03T14:11:50;100769.84;;;5.74;100.00
7297;BME280;40758;54.038;11.684;2023-02-03T14:14:58;100748.59;;;5.72;100.00
7297;BME280;40758;54.038;11.684;2023-02-03T14:18:01;100774.41;;;5.72;100.00
7297;BME280;40758;54.038;11.684;2023-02-03T14:20:54;100765.94;;;5.79;100.00
7297;BME280;40758;54.038;11.684;2023-02-03T14:23:43;100762.69;;;5.88;100.00
7297;BME280;40758;54.038;11.684;2023-02-03T14:26:22;100731.09;;;5.96;100.00
7297;BME280;40758;54.038;11.684;2023-02-03T14:28:52;100746.88;;;5.99;100.00
7297;BME280;40758;54.038;11.684;2023-02-03T14:31:23;100739.34;;;6.06;100.00